sensor_id;sensor_type;location;lat;lon;timestamp;pressure;altitude;pressure_sealevel;temperature;humidity
23363;BME280;11853;48.080;11.960;2023-07-31T00:00:06;95017.25;;;18.15;95.22
23363;BME280;11853;48.080;11.960;2023-07-31T00:02:34;95021.34;;;18.11;95.55
23363;BME280;11853;48.080;11.960;2023-07-31T00:05:00;95018.03;;;18.09;94.77
23363;BME280;11853;48.080;11.960;2023-07-31T00:07:26;95018.44;;;18.06;95.13
23363;BME280;11853;48.080;11.960;2023-07-31T00:09:52;95009.72;;;18.04;95.68
23363;BME280;11853;48.080;11.960;2023-07-31T00:12:19;95006.59;;;18.00;94.77
23363;BME280;11853;48.080;11.960;2023-07-31T00:14:44;94997.91;;;17.98;94.75
23363;BME280;11853;48.080;11.960;2023-07-31T00:17:11;95004.75;;;18.01;94.29
23363;BME280;11853;48.080;11.960;2023-07-31T00:19:36;95004.75;;;18.01;94.75
23363;BME280;11853;48.080;11.960;2023-07-31T00:22:02;95011.34;;;17.98;94.87
23363;BME280;11853;48.080;11.960;2023-07-31T00:24:27;95002.03;;;17.94;93.72
23363;BME280;11853;48.080;11.960;2023-07-31T00:26:53;94990.22;;;17.89;93.42
23363;BME280;11853;48.080;11.960;2023-07-31T00:29:18;94992.03;;;17.88;93.35
23363;BME280;11853;48.080;11.960;2023-07-31T00:31:44;94994.69;;;17.82;94.13
23363;BME280;11853;48.080;11.960;2023-07-31T00:34:09;94989.53;;;17.80;94.96
23363;BME280;11853;48.080;11.960;2023-07-31T00:36:35;95000.44;;;17.78;95.01
23363;BME280;11853;48.080;11.960;2023-07-31T00:39:00;94993.78;;;17.74;95.23
23363;BME280;11853;48.080;11.960;2023-07-31T00:41:26;94990.44;;;17.72;95.13
23363;BME280;11853;48.080;11.960;2023-07-31T00:43:51;94993.69;;;17.68;95.79
23363;BME280;11853;48.080;11.960;2023-07-31T00:46:17;94992.81;;;17.61;96.63
23363;BME280;11853;48.080;11.960;2023-07-31T00:48:43;94989.31;;;17.60;96.47
23363;BME280;11853;48.080;11.960;2023-07-31T00:51:09;94997.75;;;17.57;96.52
23363;BME280;11853;48.080;11.960;2023-07-31T00:53:34;94991.72;;;17.55;95.38
23363;BME280;11853;48.080;11.960;2023-07-31T00:56:00;94986.75;;;17.52;94.95
23363;BME280;11853;48.080;11.960;2023-07-31T00:58:26;94984.91;;;17.52;95.26
23363;BME280;11853;48.080;11.960;2023-07-31T01:00:51;94984.47;;;17.49;96.23
23363;BME280;11853;48.080;11.960;2023-07-31T01:03:17;94980.09;;;17.48;97.39
23363;BME280;11853;48.080;11.960;2023-07-31T01:07:05;94979.72;;;17.51;98.65
23363;BME280;11853;48.080;11.960;2023-07-31T01:09:03;94972.69;;;17.50;99.42
23363;BME280;11853;48.080;11.960;2023-07-31T01:11:56;94968.16;;;17.50;98.96
23363;BME280;11853;48.080;11.960;2023-07-31T01:14:22;94968.97;;;17.51;98.65
23363;BME280;11853;48.080;11.960;2023-07-31T01:16:47;94967.97;;;17.52;99.04
23363;BME280;11853;48.080;11.960;2023-07-31T01:19:15;94957.25;;;17.52;99.12
23363;BME280;11853;48.080;11.960;2023-07-31T01:26:53;94954.75;;;17.50;99.48
23363;BME280;11853;48.080;11.960;2023-07-31T01:31:56;94942.78;;;17.53;99.52
23363;BME280;11853;48.080;11.960;2023-07-31T01:34:27;94944.84;;;17.51;100.00
23363;BME280;11853;48.080;11.960;2023-07-31T01:36:53;94950.41;;;17.49;100.00
23363;BME280;11853;48.080;11.960;2023-07-31T01:39:20;94957.84;;;17.54;100.00
23363;BME280;11853;48.080;11.960;2023-07-31T01:41:46;94958.41;;;17.43;100.00
23363;BME280;11853;48.080;11.960;2023-07-31T01:44:11;94949.31;;;17.44;100.00
23363;BME280;11853;48.080;11.960;2023-07-31T01:46:38;94947.41;;;17.38;100.00
23363;BME280;11853;48.080;11.960;2023-07-31T01:49:05;94943.91;;;17.37;100.00
23363;BME280;11853;48.080;11.960;2023-07-31T01:51:31;94943.25;;;17.35;100.00
23363;BME280;11853;48.080;11.960;2023-07-31T01:54:00;94936.31;;;17.41;100.00
23363;BME280;11853;48.080;11.960;2023-07-31T01:56:25;94940.63;;;17.42;100.00
23363;BME280;11853;48.080;11.960;2023-07-31T01:58:51;94932.72;;;17.33;100.00
23363;BME280;11853;48.080;11.960;2023-07-31T02:01:16;94939.94;;;17.33;100.00
23363;BME280;11853;48.080;11.960;2023-07-31T02:03:42;94936.69;;;17.38;100.00
23363;BME280;11853;48.080;11.960;2023-07-31T02:06:07;94933.09;;;17.30;100.00
23363;BME280;11853;48.080;11.960;2023-07-31T02:08:33;94930.81;;;17.27;100.00
23363;BME280;11853;48.080;11.960;2023-07-31T02:10:59;94926.47;;;17.26;100.00
23363;BME280;11853;48.080;11.960;2023-07-31T02:13:24;94931.84;;;17.26;100.00
23363;BME280;11853;48.080;11.960;2023-07-31T02:15:49;94932.22;;;17.23;100.00
23363;BME280;11853;48.080;11.960;2023-07-31T02:18:16;94934.91;;;17.23;100.00
23363;BME280;11853;48.080;11.960;2023-07-31T02:20:41;94929.53;;;17.23;100.00
23363;BME280;11853;48.080;11.960;2023-07-31T02:23:07;94928.91;;;17.21;100.00
23363;BME280;11853;48.080;11.960;2023-07-31T02:25:32;94928.06;;;17.21;100.00
23363;BME280;11853;48.080;11.960;2023-07-31T02:27:58;94922.69;;;17.21;100.00
23363;BME280;11853;48.080;11.960;2023-07-31T02:30:23;94918.38;;;17.20;100.00
23363;BME280;11853;48.080;11.960;2023-07-31T02:32:49;94919.19;;;17.20;100.00
23363;BME280;11853;48.080;11.960;2023-07-31T02:35:15;94917.72;;;17.18;100.00
23363;BME280;11853;48.080;11.960;2023-07-31T02:37:42;94919.38;;;17.19;100.00
23363;BME280;11853;48.080;11.960;2023-07-31T02:40:08;94907.19;;;17.16;100.00
23363;BME280;11853;48.080;11.960;2023-07-31T02:42:33;94909.88;;;17.16;100.00
23363;BME280;11853;48.080;11.960;2023-07-31T02:44:59;94903.50;;;17.17;100.00
23363;BME280;11853;48.080;11.960;2023-07-31T02:47:24;94902.84;;;17.15;100.00
23363;BME280;11853;48.080;11.960;2023-07-31T02:49:50;94900.81;;;17.17;100.00
23363;BME280;11853;48.080;11.960;2023-07-31T02:52:15;94909.47;;;17.19;100.00
23363;BME280;11853;48.080;11.960;2023-07-31T02:54:41;94901.19;;;17.14;100.00
23363;BME280;11853;48.080;11.960;2023-07-31T02:57:06;94894.97;;;17.14;100.00
23363;BME280;11853;48.080;11.960;2023-07-31T02:59:32;94908.22;;;17.15;100.00
23363;BME280;11853;48.080;11.960;2023-07-31T03:01:57;94896.66;;;17.15;100.00
23363;BME280;11853;48.080;11.960;2023-07-31T03:04:23;94903.22;;;17.12;100.00
23363;BME280;11853;48.080;11.960;2023-07-31T03:06:48;94896.03;;;17.13;100.00
23363;BME280;11853;48.080;11.960;2023-07-31T03:09:14;94902.84;;;17.15;100.00
23363;BME280;11853;48.080;11.960;2023-07-31T03:11:39;94898.31;;;17.16;100.00
23363;BME280;11853;48.080;11.960;2023-07-31T03:14:05;94897.66;;;17.14;100.00
23363;BME280;11853;48.080;11.960;2023-07-31T03:16:30;94901.38;;;17.13;100.00
23363;BME280;11853;48.080;11.960;2023-07-31T03:18:56;94900.72;;;17.10;100.00
23363;BME280;11853;48.080;11.960;2023-07-31T03:21:21;94892.31;;;17.14;100.00
23363;BME280;11853;48.080;11.960;2023-07-31T03:23:47;94888.78;;;17.13;100.00
23363;BME280;11853;48.080;11.960;2023-07-31T03:26:12;94891.47;;;17.13;100.00
23363;BME280;11853;48.080;11.960;2023-07-31T03:28:38;94895.84;;;17.14;100.00
23363;BME280;11853;48.080;11.960;2023-07-31T03:31:04;94885.13;;;17.14;100.00
23363;BME280;11853;48.080;11.960;2023-07-31T03:33:30;94892.31;;;17.14;100.00
23363;BME280;11853;48.080;11.960;2023-07-31T03:35:55;94894.16;;;17.13;100.00
23363;BME280;11853;48.080;11.960;2023-07-31T03:38:21;94893.34;;;17.13;100.00
23363;BME280;11853;48.080;11.960;2023-07-31T03:40:46;94888.34;;;17.09;100.00
23363;BME280;11853;48.080;11.960;2023-07-31T03:43:12;94892.25;;;17.07;100.00
23363;BME280;11853;48.080;11.960;2023-07-31T03:45:38;94889.56;;;17.07;100.00
23363;BME280;11853;48.080;11.960;2023-07-31T03:48:04;94893.28;;;17.06;100.00
23363;BME280;11853;48.080;11.960;2023-07-31T03:50:29;94894.66;;;17.02;100.00
23363;BME280;11853;48.080;11.960;2023-07-31T03:52:55;94892.81;;;17.02;100.00
23363;BME280;11853;48.080;11.960;2023-07-31T03:55:20;94896.34;;;17.03;100.00
23363;BME280;11853;48.080;11.960;2023-07-31T03:57:47;94898.19;;;17.02;100.00
23363;BME280;11853;48.080;11.960;2023-07-31T04:00:13;94898.13;;;16.96;100.00
23363;BME280;11853;48.080;11.960;2023-07-31T04:02:39;94903.16;;;16.84;100.00
23363;BME280;11853;48.080;11.960;2023-07-31T04:05:05;94909.44;;;16.76;100.00
23363;BME280;11853;48.080;11.960;2023-07-31T04:07:31;94902.41;;;16.75;100.00
23363;BME280;11853;48.080;11.960;2023-07-31T04:09:57;94900.03;;;16.80;100.00
23363;BME280;11853;48.080;11.960;2023-07-31T04:12:23;94906.66;;;16.84;100.00
23363;BME280;11853;48.080;11.960;2023-07-31T04:14:50;94904.63;;;16.86;100.00
23363;BME280;11853;48.080;11.960;2023-07-31T04:17:15;94901.31;;;16.84;100.00
23363;BME280;11853;48.080;11.960;2023-07-31T04:19:42;94897.22;;;16.88;100.00
23363;BME280;11853;48.080;11.960;2023-07-31T04:22:08;94893.09;;;16.86;100.00
23363;BME280;11853;48.080;11.960;2023-07-31T04:24:33;94894.78;;;16.94;100.00
23363;BME280;11853;48.080;11.960;2023-07-31T04:26:59;94896.38;;;16.88;100.00
23363;BME280;11853;48.080;11.960;2023-07-31T04:29:24;94888.81;;;16.92;100.00
23363;BME280;11853;48.080;11.960;2023-07-31T04:31:50;94890.34;;;17.01;100.00
23363;BME280;11853;48.080;11.960;2023-07-31T04:34:15;94891.22;;;17.08;100.00
23363;BME280;11853;48.080;11.960;2023-07-31T04:36:41;94882.56;;;17.06;100.00
23363;BME280;11853;48.080;11.960;2023-07-31T04:39:06;94886.13;;;17.13;100.00
23363;BME280;11853;48.080;11.960;2023-07-31T04:41:32;94885.34;;;17.19;100.00
23363;BME280;11853;48.080;11.960;2023-07-31T04:43:57;94890.97;;;17.24;100.00
23363;BME280;11853;48.080;11.960;2023-07-31T04:46:23;94883.97;;;17.23;100.00
23363;BME280;11853;48.080;11.960;2023-07-31T04:48:48;94882.34;;;17.29;100.00
23363;BME280;11853;48.080;11.960;2023-07-31T04:51:14;94880.63;;;17.21;100.00
23363;BME280;11853;48.080;11.960;2023-07-31T04:53:40;94879.22;;;17.25;100.00
23363;BME280;11853;48.080;11.960;2023-07-31T04:56:05;94877.16;;;17.27;100.00
23363;BME280;11853;48.080;11.960;2023-07-31T04:58:31;94874.09;;;17.30;100.00
23363;BME280;11853;48.080;11.960;2023-07-31T05:00:56;94879.94;;;17.34;100.00
23363;BME280;11853;48.080;11.960;2023-07-31T05:03:22;94876.00;;;17.37;100.00
23363;BME280;11853;48.080;11.960;2023-07-31T05:05:47;94878.94;;;17.42;100.00
23363;BME280;11853;48.080;11.960;2023-07-31T05:08:13;94878.69;;;17.37;100.00
23363;BME280;11853;48.080;11.960;2023-07-31T05:10:39;94873.56;;;17.42;100.00
23363;BME280;11853;48.080;11.960;2023-07-31T05:13:04;94876.25;;;17.42;100.00
23363;BME280;11853;48.080;11.960;2023-07-31T05:15:30;94874.22;;;17.44;100.00
23363;BME280;11853;48.080;11.960;2023-07-31T05:17:56;94866.41;;;17.49;100.00
23363;BME280;11853;48.080;11.960;2023-07-31T05:20:21;94879.09;;;17.62;100.00
23363;BME280;11853;48.080;11.960;2023-07-31T05:22:47;94873.53;;;17.63;100.00
23363;BME280;11853;48.080;11.960;2023-07-31T05:25:12;94878.44;;;17.81;100.00
23363;BME280;11853;48.080;11.960;2023-07-31T05:27:38;94874.78;;;17.89;100.00
23363;BME280;11853;48.080;11.960;2023-07-31T05:30:04;94875.78;;;17.88;100.00
23363;BME280;11853;48.080;11.960;2023-07-31T05:32:30;94876.28;;;17.98;100.00
23363;BME280;11853;48.080;11.960;2023-07-31T05:34:55;94878.66;;;18.21;100.00
23363;BME280;11853;48.080;11.960;2023-07-31T05:37:21;94874.84;;;18.43;100.00
23363;BME280;11853;48.080;11.960;2023-07-31T05:39:47;94881.13;;;18.64;99.97
23363;BME280;11853;48.080;11.960;2023-07-31T05:42:13;94881.63;;;18.81;98.77
23363;BME280;11853;48.080;11.960;2023-07-31T05:44:38;94869.22;;;18.93;98.21
23363;BME280;11853;48.080;11.960;2023-07-31T05:47:04;94864.69;;;19.07;97.26
23363;BME280;11853;48.080;11.960;2023-07-31T05:49:30;94864.94;;;19.12;95.80
23363;BME280;11853;48.080;11.960;2023-07-31T05:51:55;94875.91;;;19.24;95.34
23363;BME280;11853;48.080;11.960;2023-07-31T05:54:21;94866.81;;;19.38;95.04
23363;BME280;11853;48.080;11.960;2023-07-31T05:56:46;94867.41;;;19.53;95.81
23363;BME280;11853;48.080;11.960;2023-07-31T05:59:12;94867.81;;;19.50;94.39
23363;BME280;11853;48.080;11.960;2023-07-31T06:01:39;94859.34;;;19.53;94.48
23363;BME280;11853;48.080;11.960;2023-07-31T06:04:04;94863.06;;;19.46;94.74
23363;BME280;11853;48.080;11.960;2023-07-31T06:06:30;94862.66;;;19.49;95.41
23363;BME280;11853;48.080;11.960;2023-07-31T06:08:55;94861.00;;;19.41;94.03
23363;BME280;11853;48.080;11.960;2023-07-31T06:11:21;94856.84;;;19.45;95.32
23363;BME280;11853;48.080;11.960;2023-07-31T06:13:47;94863.50;;;19.49;95.27
23363;BME280;11853;48.080;11.960;2023-07-31T06:16:14;94860.16;;;19.54;95.04
23363;BME280;11853;48.080;11.960;2023-07-31T06:18:41;94865.13;;;19.57;95.12
23363;BME280;11853;48.080;11.960;2023-07-31T06:21:06;94856.44;;;19.62;95.23
23363;BME280;11853;48.080;11.960;2023-07-31T06:23:32;94861.00;;;19.68;95.07
23363;BME280;11853;48.080;11.960;2023-07-31T06:25:57;94858.09;;;19.76;95.10
23363;BME280;11853;48.080;11.960;2023-07-31T06:28:27;94860.19;;;19.80;93.25
23363;BME280;11853;48.080;11.960;2023-07-31T06:30:54;94869.28;;;19.93;92.84
23363;BME280;11853;48.080;11.960;2023-07-31T06:33:20;94865.13;;;20.03;92.59
23363;BME280;11853;48.080;11.960;2023-07-31T06:35:46;94866.09;;;20.16;92.17
23363;BME280;11853;48.080;11.960;2023-07-31T06:38:11;94868.19;;;20.20;91.54
23363;BME280;11853;48.080;11.960;2023-07-31T06:40:37;94877.28;;;20.26;90.85
23363;BME280;11853;48.080;11.960;2023-07-31T06:43:02;94879.31;;;20.31;90.66
23363;BME280;11853;48.080;11.960;2023-07-31T06:45:36;94880.16;;;20.38;89.48
23363;BME280;11853;48.080;11.960;2023-07-31T06:48:03;94884.69;;;20.37;89.31
23363;BME280;11853;48.080;11.960;2023-07-31T06:50:30;94883.66;;;20.38;88.81
23363;BME280;11853;48.080;11.960;2023-07-31T06:52:56;94886.56;;;20.37;88.73
23363;BME280;11853;48.080;11.960;2023-07-31T06:55:22;94890.91;;;20.31;89.05
23363;BME280;11853;48.080;11.960;2023-07-31T06:57:49;94881.63;;;20.27;88.72
23363;BME280;11853;48.080;11.960;2023-07-31T07:00:15;94875.22;;;20.21;88.30
23363;BME280;11853;48.080;11.960;2023-07-31T07:02:41;94874.63;;;20.13;88.63
23363;BME280;11853;48.080;11.960;2023-07-31T07:05:07;94882.06;;;20.11;89.20
23363;BME280;11853;48.080;11.960;2023-07-31T07:07:33;94887.25;;;20.12;89.24
23363;BME280;11853;48.080;11.960;2023-07-31T07:09:59;94877.94;;;20.15;89.72
23363;BME280;11853;48.080;11.960;2023-07-31T07:12:25;94866.72;;;20.11;89.24
23363;BME280;11853;48.080;11.960;2023-07-31T07:14:51;94860.53;;;20.11;88.60
23363;BME280;11853;48.080;11.960;2023-07-31T07:17:18;94856.97;;;20.17;87.71
23363;BME280;11853;48.080;11.960;2023-07-31T07:19:44;94855.53;;;20.21;87.83
23363;BME280;11853;48.080;11.960;2023-07-31T07:22:11;94856.31;;;20.28;87.54
23363;BME280;11853;48.080;11.960;2023-07-31T07:24:37;94849.25;;;20.34;87.69
23363;BME280;11853;48.080;11.960;2023-07-31T07:27:03;94845.53;;;20.35;87.61
23363;BME280;11853;48.080;11.960;2023-07-31T07:29:28;94857.97;;;20.36;87.33
23363;BME280;11853;48.080;11.960;2023-07-31T07:31:54;94866.25;;;20.34;87.28
23363;BME280;11853;48.080;11.960;2023-07-31T07:34:22;94851.34;;;20.32;86.44
23363;BME280;11853;48.080;11.960;2023-07-31T07:36:48;94850.50;;;20.31;86.77
23363;BME280;11853;48.080;11.960;2023-07-31T07:39:14;94848.44;;;20.33;86.30
23363;BME280;11853;48.080;11.960;2023-07-31T07:41:40;94850.50;;;20.38;86.31
23363;BME280;11853;48.080;11.960;2023-07-31T07:44:06;94854.22;;;20.43;85.81
23363;BME280;11853;48.080;11.960;2023-07-31T07:46:31;94853.34;;;20.50;85.51
23363;BME280;11853;48.080;11.960;2023-07-31T07:48:57;94854.97;;;20.57;86.27
23363;BME280;11853;48.080;11.960;2023-07-31T07:51:23;94862.81;;;20.72;86.85
23363;BME280;11853;48.080;11.960;2023-07-31T07:53:48;94854.03;;;20.83;86.03
23363;BME280;11853;48.080;11.960;2023-07-31T07:56:14;94862.66;;;20.99;85.21
23363;BME280;11853;48.080;11.960;2023-07-31T07:58:39;94849.09;;;21.12;81.64
23363;BME280;11853;48.080;11.960;2023-07-31T08:01:05;94839.31;;;21.18;82.24
23363;BME280;11853;48.080;11.960;2023-07-31T08:03:31;94832.59;;;21.27;82.28
23363;BME280;11853;48.080;11.960;2023-07-31T08:06:00;94844.16;;;21.41;82.74
23363;BME280;11853;48.080;11.960;2023-07-31T08:08:27;94838.31;;;21.44;82.46
23363;BME280;11853;48.080;11.960;2023-07-31T08:10:53;94835.44;;;21.39;81.16
23363;BME280;11853;48.080;11.960;2023-07-31T08:13:18;94831.47;;;21.34;80.04
23363;BME280;11853;48.080;11.960;2023-07-31T08:15:44;94832.91;;;21.44;79.65
23363;BME280;11853;48.080;11.960;2023-07-31T08:18:10;94823.28;;;21.48;78.91
23363;BME280;11853;48.080;11.960;2023-07-31T08:20:37;94823.22;;;21.54;80.25
23363;BME280;11853;48.080;11.960;2023-07-31T08:23:03;94826.47;;;21.63;80.00
23363;BME280;11853;48.080;11.960;2023-07-31T08:25:29;94828.31;;;21.69;79.29
23363;BME280;11853;48.080;11.960;2023-07-31T08:27:55;94827.59;;;21.80;78.42
23363;BME280;11853;48.080;11.960;2023-07-31T08:30:21;94822.63;;;21.96;78.36
23363;BME280;11853;48.080;11.960;2023-07-31T08:32:47;94815.22;;;22.10;77.18
23363;BME280;11853;48.080;11.960;2023-07-31T08:35:13;94817.22;;;22.14;77.76
23363;BME280;11853;48.080;11.960;2023-07-31T08:37:39;94810.13;;;22.20;77.04
23363;BME280;11853;48.080;11.960;2023-07-31T08:40:05;94811.72;;;22.27;76.99
23363;BME280;11853;48.080;11.960;2023-07-31T08:42:32;94814.31;;;22.34;76.61
23363;BME280;11853;48.080;11.960;2023-07-31T08:44:59;94812.97;;;22.43;76.70
23363;BME280;11853;48.080;11.960;2023-07-31T08:47:26;94816.41;;;22.51;76.91
23363;BME280;11853;48.080;11.960;2023-07-31T08:49:54;94818.16;;;22.45;74.88
23363;BME280;11853;48.080;11.960;2023-07-31T08:52:21;94819.88;;;22.39;74.42
23363;BME280;11853;48.080;11.960;2023-07-31T08:54:46;94824.31;;;22.34;74.42
23363;BME280;11853;48.080;11.960;2023-07-31T08:57:13;94823.88;;;22.37;75.63
23363;BME280;11853;48.080;11.960;2023-07-31T08:59:40;94822.84;;;22.38;76.43
23363;BME280;11853;48.080;11.960;2023-07-31T09:02:08;94819.28;;;22.37;75.12
23363;BME280;11853;48.080;11.960;2023-07-31T09:04:34;94823.25;;;22.35;75.16
23363;BME280;11853;48.080;11.960;2023-07-31T09:07:02;94817.13;;;22.27;75.14
23363;BME280;11853;48.080;11.960;2023-07-31T09:09:30;94810.78;;;22.15;75.83
23363;BME280;11853;48.080;11.960;2023-07-31T09:11:57;94814.59;;;22.08;75.45
23363;BME280;11853;48.080;11.960;2023-07-31T09:14:24;94817.16;;;22.02;76.18
23363;BME280;11853;48.080;11.960;2023-07-31T09:16:55;94803.13;;;21.94;75.92
23363;BME280;11853;48.080;11.960;2023-07-31T09:19:33;94807.78;;;21.87;76.05
23363;BME280;11853;48.080;11.960;2023-07-31T09:22:00;94801.41;;;21.81;77.10
23363;BME280;11853;48.080;11.960;2023-07-31T09:24:27;94808.50;;;21.75;77.12
23363;BME280;11853;48.080;11.960;2023-07-31T09:26:54;94810.88;;;21.65;76.86
23363;BME280;11853;48.080;11.960;2023-07-31T09:29:22;94816.13;;;21.60;76.91
23363;BME280;11853;48.080;11.960;2023-07-31T09:31:47;94813.72;;;21.52;76.96
23363;BME280;11853;48.080;11.960;2023-07-31T09:34:13;94806.03;;;21.49;78.02
23363;BME280;11853;48.080;11.960;2023-07-31T09:36:50;94807.09;;;21.48;78.36
23363;BME280;11853;48.080;11.960;2023-07-31T09:39:18;94821.03;;;21.45;77.73
23363;BME280;11853;48.080;11.960;2023-07-31T09:41:47;94808.81;;;21.42;77.78
23363;BME280;11853;48.080;11.960;2023-07-31T09:44:13;94793.84;;;21.46;79.22
23363;BME280;11853;48.080;11.960;2023-07-31T09:46:39;94795.84;;;21.51;80.36
23363;BME280;11853;48.080;11.960;2023-07-31T09:49:13;94783.34;;;21.56;79.83
23363;BME280;11853;48.080;11.960;2023-07-31T09:51:40;94783.28;;;21.63;79.49
23363;BME280;11853;48.080;11.960;2023-07-31T09:54:14;94786.75;;;21.70;79.04
23363;BME280;11853;48.080;11.960;2023-07-31T09:56:45;94781.25;;;21.77;78.64
23363;BME280;11853;48.080;11.960;2023-07-31T09:59:20;94782.84;;;21.85;78.39
23363;BME280;11853;48.080;11.960;2023-07-31T10:01:46;94782.63;;;21.86;78.86
23363;BME280;11853;48.080;11.960;2023-07-31T10:04:13;94782.19;;;21.89;78.59
23363;BME280;11853;48.080;11.960;2023-07-31T10:06:40;94775.06;;;21.95;78.14
23363;BME280;11853;48.080;11.960;2023-07-31T10:09:09;94773.72;;;22.04;78.93
23363;BME280;11853;48.080;11.960;2023-07-31T10:11:59;94769.19;;;22.16;79.35
23363;BME280;11853;48.080;11.960;2023-07-31T10:14:26;94750.59;;;22.26;78.13
23363;BME280;11853;48.080;11.960;2023-07-31T10:16:53;94741.25;;;22.41;77.94
23363;BME280;11853;48.080;11.960;2023-07-31T10:19:20;94742.72;;;22.55;77.68
23363;BME280;11853;48.080;11.960;2023-07-31T10:21:46;94738.38;;;22.66;77.69
23363;BME280;11853;48.080;11.960;2023-07-31T10:24:14;94733.84;;;22.78;78.96
23363;BME280;11853;48.080;11.960;2023-07-31T10:26:42;94730.56;;;22.88;77.14
23363;BME280;11853;48.080;11.960;2023-07-31T10:29:11;94732.34;;;22.94;76.94
23363;BME280;11853;48.080;11.960;2023-07-31T10:31:37;94727.09;;;22.99;77.30
23363;BME280;11853;48.080;11.960;2023-07-31T10:34:04;94725.09;;;23.06;76.59
23363;BME280;11853;48.080;11.960;2023-07-31T10:36:30;94724.88;;;23.08;74.34
23363;BME280;11853;48.080;11.960;2023-07-31T10:38:56;94718.63;;;23.07;72.14
23363;BME280;11853;48.080;11.960;2023-07-31T10:41:29;94714.78;;;23.15;73.93
23363;BME280;11853;48.080;11.960;2023-07-31T10:44:02;94708.41;;;23.21;73.16
23363;BME280;11853;48.080;11.960;2023-07-31T10:46:28;94715.81;;;23.26;75.41
23363;BME280;11853;48.080;11.960;2023-07-31T10:49:03;94713.84;;;23.33;75.40
23363;BME280;11853;48.080;11.960;2023-07-31T10:51:35;94713.84;;;23.33;72.49
23363;BME280;11853;48.080;11.960;2023-07-31T10:54:15;94710.66;;;23.36;73.20
23363;BME280;11853;48.080;11.960;2023-07-31T10:56:46;94709.09;;;23.40;69.97
23363;BME280;11853;48.080;11.960;2023-07-31T10:59:13;94698.53;;;23.38;67.57
23363;BME280;11853;48.080;11.960;2023-07-31T11:01:52;94701.81;;;23.41;68.13
23363;BME280;11853;48.080;11.960;2023-07-31T11:04:26;94690.75;;;23.42;68.74
23363;BME280;11853;48.080;11.960;2023-07-31T11:07:10;94700.03;;;23.46;67.18
23363;BME280;11853;48.080;11.960;2023-07-31T11:09:37;94695.56;;;23.40;65.75
23363;BME280;11853;48.080;11.960;2023-07-31T11:12:03;94695.44;;;23.35;65.99
23363;BME280;11853;48.080;11.960;2023-07-31T11:14:28;94684.53;;;23.30;67.39
23363;BME280;11853;48.080;11.960;2023-07-31T11:16:54;94678.72;;;23.26;67.93
23363;BME280;11853;48.080;11.960;2023-07-31T11:19:26;94670.25;;;23.23;67.73
23363;BME280;11853;48.080;11.960;2023-07-31T11:21:52;94669.66;;;23.21;65.21
23363;BME280;11853;48.080;11.960;2023-07-31T11:24:20;94678.25;;;23.17;66.03
23363;BME280;11853;48.080;11.960;2023-07-31T11:26:52;94683.19;;;23.21;66.51
23363;BME280;11853;48.080;11.960;2023-07-31T11:29:18;94669.22;;;23.24;67.18
23363;BME280;11853;48.080;11.960;2023-07-31T11:31:46;94661.78;;;23.31;66.94
23363;BME280;11853;48.080;11.960;2023-07-31T11:34:13;94669.44;;;23.34;67.17
23363;BME280;11853;48.080;11.960;2023-07-31T11:36:38;94669.56;;;23.27;66.18
23363;BME280;11853;48.080;11.960;2023-07-31T11:39:08;94667.09;;;23.26;66.53
23363;BME280;11853;48.080;11.960;2023-07-31T11:41:34;94671.34;;;23.22;64.67
23363;BME280;11853;48.080;11.960;2023-07-31T11:44:00;94660.50;;;23.22;65.30
23363;BME280;11853;48.080;11.960;2023-07-31T11:46:26;94656.25;;;23.26;64.46
23363;BME280;11853;48.080;11.960;2023-07-31T11:48:52;94647.09;;;23.27;64.05
23363;BME280;11853;48.080;11.960;2023-07-31T11:51:20;94644.38;;;23.27;64.09
23363;BME280;11853;48.080;11.960;2023-07-31T11:53:51;94633.06;;;23.30;65.68
23363;BME280;11853;48.080;11.960;2023-07-31T11:56:19;94640.59;;;23.39;68.75
23363;BME280;11853;48.080;11.960;2023-07-31T11:58:59;94638.34;;;23.48;68.97
23363;BME280;11853;48.080;11.960;2023-07-31T12:01:28;94631.97;;;23.54;65.87
23363;BME280;11853;48.080;11.960;2023-07-31T12:03:55;94634.66;;;23.54;67.73
23363;BME280;11853;48.080;11.960;2023-07-31T12:06:21;94623.84;;;23.54;65.79
23363;BME280;11853;48.080;11.960;2023-07-31T12:08:47;94619.16;;;23.50;63.36
23363;BME280;11853;48.080;11.960;2023-07-31T12:11:13;94613.38;;;23.46;65.96
23363;BME280;11853;48.080;11.960;2023-07-31T12:13:40;94611.50;;;23.35;59.52
23363;BME280;11853;48.080;11.960;2023-07-31T12:16:05;94604.44;;;23.34;61.83
23363;BME280;11853;48.080;11.960;2023-07-31T12:18:36;94606.94;;;23.35;62.75
23363;BME280;11853;48.080;11.960;2023-07-31T12:21:05;94601.72;;;23.46;66.85
23363;BME280;11853;48.080;11.960;2023-07-31T12:23:33;94595.81;;;23.49;65.85
23363;BME280;11853;48.080;11.960;2023-07-31T12:28:40;94582.38;;;23.54;61.51
23363;BME280;11853;48.080;11.960;2023-07-31T12:31:08;94571.31;;;23.55;60.27
23363;BME280;11853;48.080;11.960;2023-07-31T12:33:36;94572.59;;;23.65;65.74
23363;BME280;11853;48.080;11.960;2023-07-31T12:36:08;94568.22;;;23.75;65.56
23363;BME280;11853;48.080;11.960;2023-07-31T12:38:34;94573.97;;;23.79;65.07
23363;BME280;11853;48.080;11.960;2023-07-31T12:40:59;94562.06;;;23.80;65.41
23363;BME280;11853;48.080;11.960;2023-07-31T12:43:25;94562.31;;;23.78;64.63
23363;BME280;11853;48.080;11.960;2023-07-31T12:45:50;94562.44;;;23.72;62.87
23363;BME280;11853;48.080;11.960;2023-07-31T12:48:16;94565.06;;;23.67;63.24
23363;BME280;11853;48.080;11.960;2023-07-31T12:50:42;94556.81;;;23.61;64.94
23363;BME280;11853;48.080;11.960;2023-07-31T12:53:07;94558.13;;;23.59;66.02
23363;BME280;11853;48.080;11.960;2023-07-31T12:55:33;94557.31;;;23.58;65.70